Time;durP1;ratioP1;P1;durP2;ratioP2;P2;SDS_P1;SDS_P2;PMS_P1;PMS_P2;Temp;Humidity;BMP_temperature;BMP_pressure;BME280_temperature;BME280_humidity;BME280_pressure;Samples;Min_cycle;Max_cycle;Signal;HPM_P1;HPM_P2
2022/03/20 00:02:33;;;;;;;;;;;;;;;21.26;44.39;102692.22;20743229;27;97006;-75
2022/03/20 00:12:34;;;;;;;;;;;;;;;21.22;44.26;102695.91;20757083;27;97008;-75
2022/03/20 00:22:36;;;;;;;;;;;;;;;21.21;44.20;102710.00;20747112;27;97411;-75
2022/03/20 00:32:36;;;;;;;;;;;;;;;21.17;44.47;102704.00;20741135;27;97212;-74
2022/03/20 00:42:37;;;;;;;;;;;;;;;21.15;43.94;102695.28;20739995;27;98184;-75
2022/03/20 00:52:38;;;;;;;;;;;;;;;21.14;44.02;102700.63;20782840;27;97319;-75
2022/03/20 01:02:38;;;;;;;;;;;;;;;21.13;43.71;102706.81;20749819;27;102221;-73
2022/03/20 01:12:39;;;;;;;;;;;;;;;21.05;43.81;102702.72;20770063;27;98063;-74
2022/03/20 01:22:40;;;;;;;;;;;;;;;21.05;44.02;102704.50;20786667;27;97718;-75
2022/03/20 01:32:40;;;;;;;;;;;;;;;21.02;44.23;102723.94;20754723;27;97456;-76
2022/03/20 01:42:41;;;;;;;;;;;;;;;20.99;43.85;102731.09;20764056;27;97805;-75
2022/03/20 01:52:43;;;;;;;;;;;;;;;20.99;43.86;102745.09;20789409;27;97482;-75
2022/03/20 02:02:44;;;;;;;;;;;;;;;20.93;43.71;102748.84;20731440;27;101600;-75
2022/03/20 02:12:44;;;;;;;;;;;;;;;20.88;43.77;102742.88;20731983;27;98277;-75
2022/03/20 02:22:45;;;;;;;;;;;;;;;20.85;43.37;102737.75;20759327;27;97657;-75
2022/03/20 02:32:51;;;;;;;;;;;;;;;20.85;43.61;102747.41;20795160;27;97111;-74
2022/03/20 02:42:56;;;;;;;;;;;;;;;20.85;43.31;102756.19;20790199;27;96949;-74
2022/03/20 02:53:11;;;;;;;;;;;;;;;20.84;43.60;102753.63;20673218;27;97884;-75
2022/03/20 03:03:12;;;;;;;;;;;;;;;20.81;43.59;102774.78;20665826;28;96933;-74
2022/03/20 03:13:13;;;;;;;;;;;;;;;20.76;43.42;102782.84;20661684;28;100281;-75
2022/03/20 03:23:14;;;;;;;;;;;;;;;20.74;43.41;102798.72;20679390;27;98874;-74
2022/03/20 03:33:17;;;;;;;;;;;;;;;20.71;43.00;102806.69;20656458;28;98607;-75
2022/03/20 03:43:18;;;;;;;;;;;;;;;20.67;43.14;102822.69;20658312;28;97445;-75
2022/03/20 03:53:19;;;;;;;;;;;;;;;20.66;43.16;102824.44;20765283;27;98156;-75
2022/03/20 04:03:19;;;;;;;;;;;;;;;20.63;43.34;102838.56;20772982;27;97066;-74
2022/03/20 04:13:20;;;;;;;;;;;;;;;20.62;43.05;102842.13;20799080;27;99821;-75
2022/03/20 04:33:40;;;;;;;;;;;;;;;20.59;42.88;102865.06;20739137;27;97093;-75
2022/03/20 04:43:40;;;;;;;;;;;;;;;20.54;43.15;102869.63;20759499;27;100435;-75
2022/03/20 05:04:00;;;;;;;;;;;;;;;20.52;42.86;102889.88;20647918;28;97092;-74
2022/03/20 05:14:00;;;;;;;;;;;;;;;20.57;43.17;102912.50;20672847;27;98019;-74
2022/03/20 05:24:01;;;;;;;;;;;;;;;20.71;42.81;102913.78;20678627;27;97663;-73
2022/03/20 05:34:02;;;;;;;;;;;;;;;20.83;42.37;102930.97;20678152;27;101316;-75
2022/03/20 05:44:02;;;;;;;;;;;;;;;20.90;42.65;102937.72;20660009;27;98124;-73
2022/03/20 05:54:03;;;;;;;;;;;;;;;20.97;42.16;102954.16;20738850;27;97737;-74
2022/03/20 06:04:05;;;;;;;;;;;;;;;21.03;42.10;102975.88;20757920;27;97661;-73
2022/03/20 06:14:06;;;;;;;;;;;;;;;21.15;42.99;102981.63;20768481;27;97312;-74
2022/03/20 06:24:07;;;;;;;;;;;;;;;21.23;43.13;102985.69;20752697;27;100647;-74
2022/03/20 06:34:08;;;;;;;;;;;;;;;21.31;42.94;103013.56;20764319;27;97555;-74
2022/03/20 06:44:08;;;;;;;;;;;;;;;21.37;42.96;103022.09;20768137;27;97423;-72
2022/03/20 06:54:09;;;;;;;;;;;;;;;21.43;42.67;103021.88;20799840;27;96838;-74
2022/03/20 07:04:09;;;;;;;;;;;;;;;21.52;43.23;103027.72;20757840;27;97634;-73
2022/03/20 07:14:10;;;;;;;;;;;;;;;21.55;44.06;103028.44;20725843;27;97043;-74
2022/03/20 07:24:10;;;;;;;;;;;;;;;21.63;44.17;103030.84;20728834;27;97788;-74
2022/03/20 07:34:11;;;;;;;;;;;;;;;21.69;44.49;103045.56;20773286;27;97517;-75
2022/03/20 07:44:11;;;;;;;;;;;;;;;21.71;44.40;103041.94;20791516;27;98188;-75
2022/03/20 07:54:12;;;;;;;;;;;;;;;21.71;43.72;103041.94;20738463;27;100013;-75
2022/03/20 08:04:12;;;;;;;;;;;;;;;21.74;43.00;103041.84;20735462;27;97372;-75
2022/03/20 08:14:13;;;;;;;;;;;;;;;21.77;43.42;103038.22;20734272;27;100991;-74
2022/03/20 08:24:14;;;;;;;;;;;;;;;21.81;42.85;103045.09;20735404;27;98242;-76
2022/03/20 08:34:15;;;;;;;;;;;;;;;21.80;42.41;103031.97;20740097;27;98828;-75
2022/03/20 08:44:15;;;;;;;;;;;;;;;21.84;43.11;103038.88;20734656;27;98601;-78
2022/03/20 08:54:16;;;;;;;;;;;;;;;21.74;38.37;103025.19;20743098;27;97852;-77
2022/03/20 09:04:16;;;;;;;;;;;;;;;21.69;37.96;103022.72;20744382;27;97020;-75
2022/03/20 09:14:17;;;;;;;;;;;;;;;21.44;35.17;103025.38;20718795;27;99369;-75
2022/03/20 09:24:18;;;;;;;;;;;;;;;21.56;36.18;103008.25;20754024;27;99411;-74
2022/03/20 09:34:18;;;;;;;;;;;;;;;21.60;37.41;102999.31;20823941;27;97431;-73
2022/03/20 09:44:21;;;;;;;;;;;;;;;21.63;37.37;103022.06;20825185;27;99472;-73
2022/03/20 09:54:21;;;;;;;;;;;;;;;21.65;38.33;103010.53;20739217;28;96974;-73
2022/03/20 10:04:22;;;;;;;;;;;;;;;21.71;38.34;102991.00;20721179;28;99390;-73
2022/03/20 10:14:23;;;;;;;;;;;;;;;21.73;38.15;102992.66;20721668;28;97226;-73
2022/03/20 10:24:25;;;;;;;;;;;;;;;21.77;38.90;102979.38;20725267;27;97679;-74
2022/03/20 10:34:25;;;;;;;;;;;;;;;21.77;39.61;102972.31;20732112;27;99774;-73
2022/03/20 10:44:26;;;;;;;;;;;;;;;21.81;37.02;102970.41;20716921;27;98379;-74
2022/03/20 10:54:37;;;;;;;;;;;;;;;21.94;39.07;102958.44;20741444;27;98076;-73
2022/03/20 11:04:38;;;;;;;;;;;;;;;22.04;40.07;102946.59;20741992;27;97695;-73
2022/03/20 11:14:42;;;;;;;;;;;;;;;22.09;40.41;102943.78;20746357;27;97595;-73
2022/03/20 11:24:45;;;;;;;;;;;;;;;21.40;27.38;102926.25;20740274;27;97258;-74
2022/03/20 11:34:47;;;;;;;;;;;;;;;21.22;26.79;102896.16;20735502;27;101941;-73
2022/03/20 11:44:52;;;;;;;;;;;;;;;21.86;39.64;102895.47;20737265;27;101193;-80
2022/03/20 11:54:53;;;;;;;;;;;;;;;22.09;40.60;102872.53;20752895;27;101241;-79
2022/03/20 12:05:01;;;;;;;;;;;;;;;22.18;40.73;102861.59;20749673;27;100936;-79
2022/03/20 12:15:07;;;;;;;;;;;;;;;22.20;40.90;102853.59;20775995;27;102786;-79
2022/03/20 12:25:09;;;;;;;;;;;;;;;22.23;40.88;102856.97;20769760;27;96967;-80
2022/03/20 12:35:09;;;;;;;;;;;;;;;22.25;40.90;102845.50;20777351;27;98613;-80
2022/03/20 12:45:14;;;;;;;;;;;;;;;22.27;40.66;102841.03;20778070;27;98342;-80
2022/03/20 12:55:15;;;;;;;;;;;;;;;22.30;40.79;102820.63;20868966;27;97753;-80
2022/03/20 13:05:15;;;;;;;;;;;;;;;22.35;41.19;102820.41;20758145;27;97155;-78
2022/03/20 13:15:23;;;;;;;;;;;;;;;22.46;41.73;102812.03;20729402;27;97129;-79
2022/03/20 13:25:25;;;;;;;;;;;;;;;22.58;41.21;102798.28;20727972;27;97019;-77
2022/03/20 13:35:25;;;;;;;;;;;;;;;22.64;41.17;102787.47;20732299;27;97959;-78
2022/03/20 13:45:35;;;;;;;;;;;;;;;22.71;41.11;102788.88;20725794;27;97099;-78
2022/03/20 13:55:40;;;;;;;;;;;;;;;22.79;41.00;102780.63;20658907;28;99632;-80
2022/03/20 14:05:50;;;;;;;;;;;;;;;22.84;40.82;102764.56;20661163;28;97817;-79
2022/03/20 14:15:55;;;;;;;;;;;;;;;22.90;40.71;102761.63;20673532;28;100937;-79
2022/03/20 14:26:00;;;;;;;;;;;;;;;22.92;40.77;102751.81;20676998;28;96979;-78
2022/03/20 14:46:20;;;;;;;;;;;;;;;22.89;41.13;102737.91;20731213;27;97852;-81
2022/03/20 14:56:20;;;;;;;;;;;;;;;22.87;41.17;102719.50;20794506;27;97050;-81
2022/03/20 15:06:22;;;;;;;;;;;;;;;22.87;41.60;102722.13;20798827;27;97654;-82
2022/03/20 15:16:23;;;;;;;;;;;;;;;22.86;41.24;102713.38;20811284;27;96970;-81
2022/03/20 15:26:23;;;;;;;;;;;;;;;22.82;41.31;102706.50;20804350;27;101195;-81
2022/03/20 15:36:24;;;;;;;;;;;;;;;22.45;26.96;102710.00;20810664;27;97030;-82
2022/03/20 15:46:25;;;;;;;;;;;;;;;22.51;33.88;102705.31;20797058;27;100627;-78
2022/03/20 15:56:25;;;;;;;;;;;;;;;22.62;37.11;102704.81;20825811;27;97073;-78
2022/03/20 16:06:26;;;;;;;;;;;;;;;22.65;38.00;102693.25;20757079;27;97996;-79
2022/03/20 16:16:28;;;;;;;;;;;;;;;22.64;40.37;102692.41;20749535;27;97438;-79
2022/03/20 16:36:47;;;;;;;;;;;;;;;22.60;41.55;102684.69;20753725;27;97160;-79
2022/03/20 16:46:48;;;;;;;;;;;;;;;22.61;42.91;102686.41;20792833;27;97021;-81
2022/03/20 16:56:48;;;;;;;;;;;;;;;22.60;42.29;102682.91;20727677;27;97235;-78
2022/03/20 17:06:49;;;;;;;;;;;;;;;22.59;43.71;102688.25;20652875;27;100668;-75
2022/03/20 17:16:50;;;;;;;;;;;;;;;22.57;43.68;102684.81;20644336;27;97494;-78
2022/03/20 17:26:52;;;;;;;;;;;;;;;22.55;44.62;102687.53;20651509;27;98151;-76
2022/03/20 17:36:53;;;;;;;;;;;;;;;22.51;42.76;102684.19;20684427;28;97251;-76
2022/03/20 17:46:53;;;;;;;;;;;;;;;22.48;44.46;102694.88;20667038;27;99640;-78
2022/03/20 17:56:54;;;;;;;;;;;;;;;22.46;45.27;102698.53;20642948;28;98072;-77
2022/03/20 18:17:15;;;;;;;;;;;;;;;22.54;43.94;102706.94;20754215;27;97467;-77
2022/03/20 18:27:16;;;;;;;;;;;;;;;22.62;44.06;102706.59;20727186;27;98896;-83
2022/03/20 18:37:17;;;;;;;;;;;;;;;22.63;43.39;102708.31;20730106;27;97896;-81
2022/03/20 18:47:19;;;;;;;;;;;;;;;22.63;43.87;102710.94;20751916;27;97738;-83
2022/03/20 18:57:19;;;;;;;;;;;;;;;22.58;43.38;102708.50;20760169;27;97141;-80
2022/03/20 19:07:20;;;;;;;;;;;;;;;22.51;43.21;102715.03;20782339;27;97622;-81
2022/03/20 19:17:26;;;;;;;;;;;;;;;22.49;41.79;102703.69;20787570;27;97785;-81
2022/03/20 19:27:27;;;;;;;;;;;;;;;22.46;41.83;102695.88;20741811;27;96851;-81
2022/03/20 19:47:52;;;;;;;;;;;;;;;22.53;42.16;102700.81;20774233;27;97368;-80
2022/03/20 19:57:52;;;;;;;;;;;;;;;22.51;43.53;102694.75;20762482;27;97162;-80
2022/03/20 20:07:53;;;;;;;;;;;;;;;22.46;43.69;102704.69;21077109;22;100120;-78
2022/03/20 20:17:53;;;;;;;;;;;;;;;22.35;44.15;102701.63;20668172;28;97880;-77
2022/03/20 20:27:54;;;;;;;;;;;;;;;22.28;43.91;102689.66;20668512;28;97386;-77
2022/03/20 20:37:54;;;;;;;;;;;;;;;22.16;43.98;102691.91;20676356;28;97329;-77
2022/03/20 20:47:55;;;;;;;;;;;;;;;22.10;43.88;102691.34;20673861;28;97843;-77
2022/03/20 20:57:55;;;;;;;;;;;;;;;22.01;44.15;102682.06;20661246;28;97910;-77
2022/03/20 21:18:15;;;;;;;;;;;;;;;21.92;43.74;102672.75;20743105;28;97607;-77
2022/03/20 21:28:16;;;;;;;;;;;;;;;21.88;44.00;102668.56;20743197;27;98923;-77
2022/03/20 21:38:17;;;;;;;;;;;;;;;21.82;44.47;102660.91;20723477;27;97048;-77
2022/03/20 21:48:22;;;;;;;;;;;;;;;21.80;44.01;102662.75;20718668;27;97854;-76
2022/03/20 21:58:22;;;;;;;;;;;;;;;21.78;44.03;102654.06;20747021;27;97417;-78
2022/03/20 22:08:23;;;;;;;;;;;;;;;21.70;43.59;102663.19;20730266;28;98784;-78
2022/03/20 22:18:23;;;;;;;;;;;;;;;21.63;43.47;102668.75;20746828;27;97126;-78
2022/03/20 22:28:24;;;;;;;;;;;;;;;21.55;43.86;102663.78;20712815;28;97848;-78
2022/03/20 22:38:26;;;;;;;;;;;;;;;21.57;43.57;102672.53;20731831;28;98417;-77
2022/03/20 22:58:46;;;;;;;;;;;;;;;21.47;43.43;102671.16;20752356;27;97822;-78
2022/03/20 23:08:46;;;;;;;;;;;;;;;21.42;43.31;102664.31;20733686;28;97100;-78
2022/03/20 23:18:47;;;;;;;;;;;;;;;21.42;43.41;102674.00;20754255;27;97658;-77
2022/03/20 23:28:48;;;;;;;;;;;;;;;21.34;43.20;102676.13;20746458;28;96925;-78
2022/03/20 23:38:48;;;;;;;;;;;;;;;21.27;43.09;102671.06;20744631;28;98170;-78
2022/03/20 23:48:49;;;;;;;;;;;;;;;21.27;43.28;102660.53;20738228;28;97534;-77
2022/03/20 23:58:49;;;;;;;;;;;;;;;21.23;43.07;102664.22;20740084;28;97237;-78
